TPOK1: Kansas River, State-Line, KS

                                SHEF ID:       TPOK1     MARAIS DES CYGNES R NR KS-MO ST
STATION TYPE:

STAGE STAGE(2) RIV-FLOW BAT-LOAD
ft ft cfs volt
Ccp-Rev Ccp-Rev Ccp-Rev Ccp-Rev
(America/Chicago)
07/10 00:00 8.12 8.12 2200 12.51
07/10 01:00 8.15 8.13 2218 12.50
07/10 02:00 8.20 8.15 2249 12.49
07/10 03:00 8.22 8.20 2261 12.47
07/10 04:00 8.24 8.21 2274 12.47
07/10 05:00 8.29 8.27 2305 12.44
07/10 06:00 8.35 8.33 2342 12.41
07/10 07:00 8.41 8.39 2380 12.40
07/10 08:00 8.48 8.49 2424 12.42
07/10 09:00 8.55 8.55 2469 12.80
07/10 10:00 8.61 8.58 2507 13.26
07/10 11:00 8.69 8.67 2559 12.93
07/10 12:00 8.78 8.78 2617 13.11
07/10 13:00 8.85 8.82 2663 13.32
07/10 14:00 8.91 8.87 2702 13.26
07/10 15:00 8.98 8.99 2749 13.18
07/10 16:00 9.06 9.06 2802 13.10
07/10 17:00 9.10 9.06 2829 12.93
07/10 18:00 9.14 9.13 2856 12.75
07/10 19:00 9.19 9.14 2889 12.64
07/10 20:00 9.22 9.20 2910 12.60
07/10 21:00 9.25 9.23 2930 12.57
07/10 22:00 9.26 9.21 2937 12.57
07/10 23:00 9.25 9.23 2930 12.53
Data processed at Sat 11Jul2026 04:52 GMT

NOTICE: If you are parsing this page

Please convert to using our Data API. Starting early 2026 we will be migrating to: https://water.usace.army.mil with modern pages rendered in JavaScript. When this migration completes you will no longer be able to scrape this page! CWMSDataAPI (CDA)

Timeseries IDs (TSIDs)

TSIDs used from left to right in the data table
MKSL.Stage.Inst.1Hour.0.Ccp-Rev
MKSL.Stage-Alt.Inst.1Hour.0.Ccp-Rev
MKSL.Flow.Inst.1Hour.0.Ccp-Rev
MKSL.Volt-Battery Load.Inst.1Hour.0.Ccp-Rev

                            

All information presented herein is the property of the government of the United States of America and may be revised or deleted at any time without prior notice. Dissemination of this information without the expressed written consent of the Public Affairs Office, Tulsa District U.S. Army Corps of Engineers is strictly prohibited. These data are gathered electronically and, as presented, have NOT undergone any form of quality control. These data are NOT guaranteed to be valid or correct.